createdAt,value
2017-09-22T00:03:39.794Z,0
2017-09-22T00:04:19.137Z,0
2017-09-22T00:05:00.396Z,0
2017-09-22T00:05:40.672Z,0
2017-09-22T00:06:24.522Z,0
2017-09-22T00:07:05.132Z,0
2017-09-22T00:07:45.577Z,0
2017-09-22T00:08:26.038Z,0
2017-09-22T00:09:08.104Z,0
2017-09-22T00:09:48.476Z,0
2017-09-22T00:10:28.924Z,0
2017-09-22T00:11:10.446Z,0
2017-09-22T00:11:51.933Z,0
2017-09-22T00:12:35.347Z,0
2017-09-22T00:13:16.814Z,0
2017-09-22T00:13:57.205Z,0
2017-09-22T00:14:41.493Z,0
2017-09-22T00:15:24.240Z,0
2017-09-22T00:16:04.586Z,0
2017-09-22T00:16:45.137Z,0
2017-09-22T00:17:27.500Z,0
2017-09-22T00:18:08.626Z,0
2017-09-22T00:18:52.150Z,0
2017-09-22T00:19:34.659Z,0
2017-09-22T00:20:16.390Z,0
2017-09-22T00:20:58.374Z,0
2017-09-22T00:21:39.485Z,0
2017-09-22T00:22:25.004Z,0
2017-09-22T00:23:11.886Z,0
2017-09-22T00:23:52.597Z,0
2017-09-22T00:24:32.902Z,0
2017-09-22T00:25:13.344Z,0
2017-09-22T00:25:54.476Z,0
2017-09-22T00:26:35.830Z,0
2017-09-22T00:27:18.393Z,0
2017-09-22T00:27:59.152Z,0
2017-09-22T00:28:40.225Z,0
2017-09-22T00:29:20.717Z,0
2017-09-22T00:38:06.766Z,0
2017-09-22T00:48:14.472Z,0
2017-09-22T00:48:54.794Z,0
2017-09-22T00:49:35.246Z,0
2017-09-22T00:50:17.010Z,0
2017-09-22T00:50:57.031Z,0
2017-09-22T00:51:37.321Z,0
2017-09-22T00:52:17.831Z,0
2017-09-22T00:52:58.377Z,0
2017-09-22T00:53:41.468Z,0
2017-09-22T00:54:21.955Z,0
2017-09-22T00:55:02.465Z,0
2017-09-22T00:55:42.843Z,0
2017-09-22T00:56:23.330Z,0
2017-09-22T00:57:03.751Z,0
2017-09-22T00:57:44.189Z,0
2017-09-22T00:58:24.642Z,0
2017-09-22T00:59:05.304Z,0
2017-09-22T00:59:45.854Z,0
2017-09-22T01:00:26.311Z,0
2017-09-22T01:01:06.846Z,0
2017-09-22T01:01:47.516Z,0
2017-09-22T01:02:27.901Z,0
2017-09-22T01:03:08.395Z,0
2017-09-22T01:03:49.851Z,0
2017-09-22T01:04:30.322Z,0
2017-09-22T01:05:10.864Z,0
2017-09-22T01:05:51.413Z,0
2017-09-22T01:06:31.703Z,0
2017-09-22T01:07:12.324Z,0
2017-09-22T01:07:52.866Z,0
2017-09-22T01:08:33.356Z,0
2017-09-22T01:09:13.879Z,0
2017-09-22T01:09:54.502Z,0
2017-09-22T01:10:35.028Z,0
2017-09-22T01:11:15.412Z,0
2017-09-22T01:11:55.889Z,0
2017-09-22T01:12:36.322Z,0
2017-09-22T01:13:16.824Z,0
2017-09-22T01:13:57.194Z,0
2017-09-22T01:14:37.662Z,0
2017-09-22T01:15:18.124Z,0
2017-09-22T01:15:58.968Z,0
2017-09-22T01:16:39.629Z,0
2017-09-22T01:17:20.172Z,0
2017-09-22T01:18:00.741Z,0
2017-09-22T01:18:41.052Z,0
2017-09-22T01:19:21.447Z,0
2017-09-22T01:20:02.106Z,0
2017-09-22T01:20:42.481Z,0
2017-09-22T01:21:22.862Z,0
2017-09-22T01:22:03.302Z,0
2017-09-22T01:22:44.758Z,0
2017-09-22T01:23:25.225Z,0
2017-09-22T01:24:07.608Z,0
2017-09-22T01:24:49.907Z,0
2017-09-22T01:25:30.460Z,0
2017-09-22T01:26:11.018Z,0
2017-09-22T01:26:51.450Z,0
2017-09-22T01:27:32.226Z,0
2017-09-22T01:28:12.712Z,0
2017-09-22T01:28:53.115Z,0
2017-09-22T01:29:33.882Z,0
2017-09-22T01:30:16.683Z,0
2017-09-22T01:30:57.330Z,0
2017-09-22T01:31:38.668Z,0
2017-09-22T01:32:18.958Z,0
2017-09-22T01:33:01.073Z,0
2017-09-22T01:33:41.291Z,0
2017-09-22T01:34:21.958Z,0
2017-09-22T01:35:02.373Z,0
2017-09-22T01:35:42.707Z,0
2017-09-22T01:36:23.280Z,0
2017-09-22T01:37:03.728Z,0
2017-09-22T01:37:44.244Z,0
2017-09-22T01:38:24.688Z,0
2017-09-22T01:39:05.660Z,0
2017-09-22T01:39:45.731Z,0
2017-09-22T01:40:26.220Z,0
2017-09-22T01:41:06.772Z,0
2017-09-22T01:41:48.066Z,0
2017-09-22T01:42:28.437Z,0
2017-09-22T01:43:10.821Z,0
2017-09-22T01:43:51.359Z,0
2017-09-22T01:44:31.731Z,0
2017-09-22T01:45:12.210Z,0
2017-09-22T01:45:52.540Z,0
2017-09-22T01:46:33.231Z,0
2017-09-22T01:47:13.503Z,0
2017-09-22T01:47:53.906Z,0
2017-09-22T01:48:34.317Z,0
2017-09-22T01:49:14.744Z,0
2017-09-22T01:49:55.274Z,0
2017-09-22T01:50:36.004Z,0
2017-09-22T01:51:23.050Z,0
2017-09-22T01:52:03.423Z,0
2017-09-22T01:52:43.951Z,0
2017-09-22T01:53:24.407Z,0
2017-09-22T01:54:04.897Z,0
2017-09-22T01:54:45.439Z,0
2017-09-22T01:55:25.859Z,0
2017-09-22T01:56:07.687Z,0
2017-09-22T01:56:47.974Z,0
2017-09-22T01:57:28.267Z,0
2017-09-22T01:58:09.533Z,0
2017-09-22T01:58:49.883Z,0
2017-09-22T01:59:30.400Z,0
2017-09-22T02:00:10.980Z,0
2017-09-22T02:00:51.367Z,0
2017-09-22T02:01:31.876Z,0
2017-09-22T02:02:12.871Z,0
2017-09-22T02:02:53.492Z,0
2017-09-22T02:10:30.512Z,0
2017-09-22T02:11:11.039Z,0
2017-09-22T02:11:51.397Z,0
2017-09-22T02:12:32.046Z,0
2017-09-22T02:13:12.538Z,0
2017-09-22T02:13:54.360Z,0
2017-09-22T02:14:34.826Z,0
2017-09-22T02:15:15.376Z,0
2017-09-22T02:15:56.174Z,0
2017-09-22T02:24:53.824Z,0
2017-09-22T02:46:11.876Z,0
2017-09-22T02:47:00.674Z,0
2017-09-22T02:47:49.597Z,0
2017-09-22T02:48:38.466Z,0
2017-09-22T02:49:26.968Z,0
2017-09-22T02:50:15.967Z,0
2017-09-22T02:51:04.598Z,0
2017-09-22T03:08:56.429Z,0
2017-09-22T03:17:42.680Z,0
2017-09-22T03:29:50.359Z,0
2017-09-22T03:30:30.508Z,0
2017-09-22T03:31:10.927Z,0
2017-09-22T03:31:51.442Z,0
2017-09-22T03:32:31.862Z,0
2017-09-22T03:33:12.346Z,0
2017-09-22T03:33:52.877Z,0
2017-09-22T03:34:33.280Z,0
2017-09-22T03:35:13.756Z,0
2017-09-22T03:35:54.333Z,0
2017-09-22T03:36:35.260Z,0
2017-09-22T03:37:15.607Z,0
2017-09-22T03:37:57.520Z,0
2017-09-22T03:38:37.965Z,0
2017-09-22T03:39:18.370Z,0
2017-09-22T03:39:58.834Z,0
2017-09-22T03:40:39.350Z,0
2017-09-22T03:50:45.774Z,0
2017-09-22T03:51:26.593Z,0
2017-09-22T03:52:07.612Z,0
2017-09-22T03:52:48.105Z,0
2017-09-22T03:53:28.617Z,0
2017-09-22T03:54:09.097Z,0
2017-09-22T03:54:49.603Z,0
2017-09-22T03:55:30.162Z,0
2017-09-22T03:56:10.614Z,0
2017-09-22T03:56:51.080Z,0
2017-09-22T03:57:31.533Z,0
2017-09-22T03:58:11.955Z,0
2017-09-22T03:58:52.491Z,0
2017-09-22T03:59:32.918Z,0
2017-09-22T04:00:13.344Z,0
2017-09-22T04:00:53.967Z,0
2017-09-22T04:01:34.541Z,0
2017-09-22T04:02:15.030Z,0
2017-09-22T04:02:56.475Z,0
2017-09-22T04:03:37.384Z,0
2017-09-22T04:04:17.899Z,0
2017-09-22T04:04:58.897Z,0
2017-09-22T04:05:39.228Z,0
2017-09-22T04:06:20.060Z,0
2017-09-22T04:07:00.478Z,0
2017-09-22T04:07:41.117Z,0
2017-09-22T04:08:21.617Z,0
2017-09-22T04:09:02.141Z,0
2017-09-22T04:09:42.658Z,0
2017-09-22T04:10:23.231Z,0
2017-09-22T04:11:04.689Z,0
2017-09-22T04:11:45.505Z,0
2017-09-22T04:12:26.899Z,0
2017-09-22T04:13:07.168Z,0
2017-09-22T04:13:47.774Z,0
2017-09-22T04:14:28.835Z,0
2017-09-22T04:15:13.606Z,0
2017-09-22T04:16:03.335Z,0
2017-09-22T04:20:39.120Z,0
2017-09-22T04:21:23.084Z,0
2017-09-22T04:22:03.532Z,0
2017-09-22T04:22:44.000Z,0
2017-09-22T04:23:27.455Z,0
2017-09-22T04:24:07.732Z,0
2017-09-22T04:24:48.693Z,0
2017-09-22T04:25:29.470Z,0
2017-09-22T04:26:09.981Z,0
2017-09-22T04:26:53.671Z,0
2017-09-22T04:27:33.889Z,0
2017-09-22T04:28:15.187Z,0
2017-09-22T04:28:55.709Z,0
2017-09-22T04:29:36.317Z,0
2017-09-22T04:30:16.677Z,0
2017-09-22T04:30:57.875Z,0
2017-09-22T04:31:38.696Z,0
2017-09-22T04:32:19.705Z,0
2017-09-22T04:33:00.731Z,0
2017-09-22T04:33:42.010Z,0
2017-09-22T04:34:23.287Z,0
2017-09-22T04:35:04.481Z,0
2017-09-22T04:35:45.029Z,0
2017-09-22T04:36:26.343Z,0
2017-09-22T04:37:06.796Z,0
2017-09-22T04:37:49.317Z,0
2017-09-22T04:38:31.163Z,0
2017-09-22T04:39:11.545Z,0
2017-09-22T04:39:52.959Z,0
2017-09-22T04:40:34.187Z,0
2017-09-22T04:41:15.441Z,0
2017-09-22T04:41:57.317Z,0
2017-09-22T04:42:40.077Z,0
2017-09-22T04:43:23.136Z,0
2017-09-22T04:44:02.635Z,0
2017-09-22T04:44:44.053Z,0
2017-09-22T04:45:25.500Z,0
2017-09-22T04:46:06.451Z,0
2017-09-22T04:46:47.613Z,0
2017-09-22T04:54:56.059Z,4
2017-09-22T04:55:36.513Z,4
2017-09-22T04:56:17.641Z,4
2017-09-22T04:56:57.952Z,4
2017-09-22T04:57:38.416Z,4
2017-09-22T04:58:18.945Z,4
2017-09-22T04:58:59.452Z,4
2017-09-22T04:59:42.409Z,4
2017-09-22T05:00:22.939Z,4
2017-09-22T05:01:03.936Z,12
2017-09-22T05:01:45.404Z,8
2017-09-22T05:02:25.689Z,8
2017-09-22T05:03:06.332Z,12
2017-09-22T05:03:47.049Z,16
2017-09-22T05:04:27.902Z,16
2017-09-22T05:05:08.432Z,16
2017-09-22T05:05:49.189Z,20
2017-09-22T05:06:29.811Z,20
2017-09-22T05:07:10.450Z,20
2017-09-22T05:07:50.970Z,28
2017-09-22T05:08:31.510Z,28
2017-09-22T05:09:12.426Z,28
2017-09-22T05:09:55.077Z,36
2017-09-22T05:10:36.051Z,36
2017-09-22T05:11:17.282Z,40
2017-09-22T05:11:57.513Z,44
2017-09-22T05:12:39.916Z,52
2017-09-22T05:13:24.941Z,56
2017-09-22T05:14:06.725Z,56
2017-09-22T05:14:46.901Z,64
2017-09-22T05:15:27.417Z,68
2017-09-22T05:16:07.976Z,72
2017-09-22T05:16:48.830Z,80
2017-09-22T05:19:11.969Z,104
2017-09-22T05:19:56.922Z,116
2017-09-22T05:20:38.598Z,124
2017-09-22T05:21:19.260Z,132
2017-09-22T05:21:59.849Z,140
2017-09-22T05:22:40.598Z,148
2017-09-22T05:23:20.936Z,156
2017-09-22T05:24:01.573Z,168
2017-09-22T05:24:42.305Z,176
2017-09-22T05:25:22.603Z,188
2017-09-22T05:26:03.158Z,196
2017-09-22T05:26:43.952Z,208
2017-09-22T05:27:24.125Z,220
2017-09-22T05:28:04.581Z,232
2017-09-22T05:28:45.094Z,244
2017-09-22T05:29:27.595Z,260
2017-09-22T05:30:08.190Z,272
2017-09-22T05:30:48.879Z,284
2017-09-22T05:31:29.298Z,296
2017-09-22T05:32:09.927Z,308
2017-09-22T05:32:50.477Z,324
2017-09-22T05:33:31.553Z,336
2017-09-22T05:34:12.868Z,352
2017-09-22T05:34:53.063Z,368
2017-09-22T05:35:34.323Z,392
2017-09-22T05:36:14.807Z,416
2017-09-22T05:36:55.560Z,444
2017-09-22T05:37:36.373Z,460
2017-09-22T05:38:16.983Z,476
2017-09-22T05:38:58.529Z,476
2017-09-22T05:39:40.726Z,480
2017-09-22T05:40:22.756Z,484
2017-09-22T05:41:03.719Z,504
2017-09-22T05:41:44.186Z,516
2017-09-22T05:42:25.650Z,540
2017-09-22T05:43:06.980Z,560
2017-09-22T05:43:47.357Z,588
2017-09-22T05:44:28.128Z,624
2017-09-22T05:45:09.186Z,700
2017-09-22T05:45:49.349Z,796
2017-09-22T05:46:29.771Z,852
2017-09-22T05:47:10.230Z,912
2017-09-22T05:47:50.791Z,944
2017-09-22T05:48:31.077Z,1008
2017-09-22T05:49:11.668Z,1048
2017-09-22T05:49:52.043Z,1044
2017-09-22T05:50:32.496Z,1056
2017-09-22T05:51:13.017Z,1096
2017-09-22T05:51:53.948Z,1160
2017-09-22T05:52:35.356Z,1268
2017-09-22T05:53:15.595Z,1380
2017-09-22T05:53:56.081Z,1456
2017-09-22T05:54:36.477Z,1480
2017-09-22T05:55:18.600Z,1452
2017-09-22T05:55:59.802Z,1456
2017-09-22T05:56:40.638Z,1408
2017-09-22T05:57:21.258Z,1452
2017-09-22T05:58:02.511Z,1440
2017-09-22T05:58:43.194Z,1496
2017-09-22T05:59:23.615Z,1624
2017-09-22T06:00:04.775Z,1756
2017-09-22T06:00:45.362Z,1636
2017-09-22T06:01:26.299Z,1480
2017-09-22T06:02:07.620Z,1452
2017-09-22T06:02:48.619Z,1564
2017-09-22T06:03:29.125Z,1748
2017-09-22T06:04:10.161Z,1924
2017-09-22T06:04:50.755Z,2032
2017-09-22T06:05:32.052Z,2184
2017-09-22T06:06:12.730Z,2308
2017-09-22T06:06:53.119Z,2228
2017-09-22T06:07:34.299Z,2140
2017-09-22T06:08:15.042Z,2300
2017-09-22T06:08:55.797Z,2556
2017-09-22T06:09:36.903Z,2700
2017-09-22T06:10:17.721Z,2616
2017-09-22T06:10:58.665Z,2364
2017-09-22T06:11:39.400Z,2156
2017-09-22T06:12:20.964Z,1884
2017-09-22T06:13:02.205Z,1604
2017-09-22T06:13:42.784Z,1368
2017-09-22T06:14:23.240Z,1252
2017-09-22T06:15:03.688Z,1220
2017-09-22T06:15:45.063Z,1248
2017-09-22T06:16:25.759Z,1304
2017-09-22T06:17:06.281Z,1476
2017-09-22T06:17:46.904Z,1740
2017-09-22T06:21:54.130Z,2736
2017-09-22T06:22:36.175Z,2936
2017-09-22T06:23:16.814Z,3704
2017-09-22T06:23:58.223Z,4524
2017-09-22T06:24:38.964Z,4740
2017-09-22T06:25:20.532Z,3984
2017-09-22T06:26:01.701Z,2816
2017-09-22T06:26:42.362Z,2072
2017-09-22T06:27:23.099Z,1784
2017-09-22T06:28:03.878Z,1740
2017-09-22T06:28:44.339Z,1840
2017-09-22T06:29:24.882Z,2176
2017-09-22T06:30:05.420Z,2832
2017-09-22T06:30:46.058Z,3304
2017-09-22T06:31:26.640Z,4064
2017-09-22T06:32:08.254Z,4728
2017-09-22T06:32:49.036Z,6520
2017-09-22T06:33:30.002Z,7432
2017-09-22T06:34:12.317Z,7784
2017-09-22T06:34:52.859Z,7732
2017-09-22T06:35:33.289Z,7964
2017-09-22T06:36:13.736Z,8280
2017-09-22T06:36:58.016Z,8444
2017-09-22T06:37:41.101Z,8484
2017-09-22T06:38:21.838Z,8720
2017-09-22T06:39:04.172Z,9200
2017-09-22T06:39:45.646Z,9528
2017-09-22T06:40:31.223Z,9576
2017-09-22T06:41:11.821Z,9176
2017-09-22T06:41:53.749Z,6152
2017-09-22T06:42:34.692Z,5024
2017-09-22T06:43:19.226Z,6820
2017-09-22T06:44:01.412Z,8472
2017-09-22T06:49:57.359Z,10856
2017-09-22T06:53:22.037Z,9340
2017-09-22T06:54:38.277Z,6592
2017-09-22T06:57:19.990Z,9800
2017-09-22T06:58:22.740Z,9676
2017-09-22T06:59:14.964Z,9912
2017-09-22T06:59:55.498Z,10424
2017-09-22T07:00:36.189Z,10376
2017-09-22T07:01:16.608Z,10504
2017-09-22T07:01:57.387Z,10432
2017-09-22T07:02:38.159Z,10116
2017-09-22T07:03:18.442Z,9336
2017-09-22T07:03:59.092Z,9164
2017-09-22T07:04:39.573Z,9348
2017-09-22T07:05:20.086Z,9596
2017-09-22T07:06:00.477Z,9780
2017-09-22T07:06:41.079Z,9892
2017-09-22T07:07:21.542Z,9644
2017-09-22T07:08:02.289Z,8792
2017-09-22T07:08:42.667Z,7028
2017-09-22T07:09:23.384Z,5364
2017-09-22T07:10:03.729Z,4836
2017-09-22T07:11:00.147Z,6056
2017-09-22T07:22:08.410Z,6624
2017-09-22T07:29:57.529Z,3508
2017-09-22T07:30:58.709Z,4536
2017-09-22T07:31:57.621Z,4636
2017-09-22T07:32:54.647Z,4980
2017-09-22T07:33:54.928Z,6064
2017-09-22T07:34:53.458Z,5896
2017-09-22T07:36:07.847Z,5328
2017-09-22T07:41:02.106Z,3064
2017-09-22T07:42:00.051Z,2532
2017-09-22T07:43:01.195Z,2792
2017-09-22T07:44:02.601Z,3612
2017-09-22T07:45:03.221Z,3200
2017-09-22T07:46:07.889Z,3012
2017-09-22T07:47:07.448Z,2892
2017-09-22T07:50:40.986Z,2672
2017-09-22T07:51:53.462Z,2720
2017-09-22T07:52:52.334Z,2832
2017-09-22T07:53:56.504Z,3140
2017-09-22T07:54:57.472Z,3216
2017-09-22T07:57:33.068Z,2772
2017-09-22T08:00:17.301Z,2864
2017-09-22T08:01:02.665Z,2676
2017-09-22T08:01:44.782Z,2668
2017-09-22T08:02:25.945Z,2856
2017-09-22T08:03:12.692Z,2712
2017-09-22T08:08:18.065Z,2676
2017-09-22T08:09:08.273Z,2708
2017-09-22T08:09:56.879Z,2712
2017-09-22T08:10:45.514Z,2668
2017-09-22T08:11:34.312Z,2724
2017-09-22T08:23:38.962Z,2848
2017-09-22T08:26:20.925Z,2956
2017-09-22T08:27:01.222Z,2940
2017-09-22T08:27:41.676Z,2916
2017-09-22T08:28:24.188Z,2796
2017-09-22T08:29:04.814Z,2704
2017-09-22T08:29:46.061Z,2672
2017-09-22T08:30:26.640Z,2668
2017-09-22T08:33:34.219Z,2872
2017-09-22T08:34:38.181Z,2868
2017-09-22T08:35:46.673Z,2892
2017-09-22T08:36:46.233Z,2820
2017-09-22T08:37:48.280Z,2720
2017-09-22T08:38:48.918Z,2780
2017-09-22T08:39:52.604Z,2708
2017-09-22T08:40:55.742Z,2612
2017-09-22T08:42:00.496Z,2772
2017-09-22T08:43:07.498Z,2796
2017-09-22T08:44:12.250Z,2712
2017-09-22T08:45:12.430Z,2788
2017-09-22T08:46:18.249Z,2880
2017-09-22T08:56:59.133Z,2532
2017-09-22T08:57:54.672Z,2688
2017-09-22T09:07:40.158Z,2760
2017-09-22T09:08:28.848Z,2680
2017-09-22T09:09:17.726Z,2656
2017-09-22T09:10:06.630Z,2672
2017-09-22T09:10:56.015Z,2740
2017-09-22T09:11:44.496Z,3036
2017-09-22T09:14:10.835Z,3120
2017-09-22T09:14:59.958Z,3096
2017-09-22T09:15:43.097Z,3096
2017-09-22T09:16:53.111Z,3100
2017-09-22T09:19:19.724Z,3032
2017-09-22T09:20:09.040Z,2900
2017-09-22T09:20:57.491Z,2896
2017-09-22T09:21:46.443Z,2904
2017-09-22T09:22:35.229Z,2824
2017-09-22T09:29:14.043Z,2500
2017-09-22T09:30:14.893Z,2368
2017-09-22T09:31:13.968Z,2508
2017-09-22T09:32:14.923Z,2632
2017-09-22T09:33:16.261Z,2664
2017-09-22T09:34:15.129Z,2652
2017-09-22T09:35:23.665Z,2632
2017-09-22T09:36:27.357Z,2632
2017-09-22T09:37:31.650Z,2612
2017-09-22T09:38:37.048Z,2540
2017-09-22T09:39:50.242Z,2652
2017-09-22T09:40:56.782Z,2668
2017-09-22T09:41:57.574Z,2792
2017-09-22T09:42:37.437Z,2668
2017-09-22T09:43:18.508Z,2852
2017-09-22T09:43:58.515Z,2836
2017-09-22T09:44:39.394Z,2796
2017-09-22T09:48:33.081Z,2588
2017-09-22T09:49:30.522Z,2556
2017-09-22T09:50:30.060Z,2524
2017-09-22T09:51:31.698Z,2460
2017-09-22T09:52:33.207Z,2456
2017-09-22T09:53:34.344Z,2452
2017-09-22T09:54:34.689Z,2432
2017-09-22T09:58:32.970Z,2408
2017-09-22T09:59:36.062Z,2392
2017-09-22T10:00:36.358Z,2384
2017-09-22T10:01:38.414Z,2384
2017-09-22T10:02:52.286Z,2408
2017-09-22T10:03:50.222Z,2384
2017-09-22T10:04:48.707Z,2484
2017-09-22T10:07:25.447Z,2476
2017-09-22T10:08:17.051Z,2516
2017-09-22T10:09:07.038Z,2524
2017-09-22T10:09:56.411Z,2484
2017-09-22T10:10:46.562Z,2468
2017-09-22T10:11:30.899Z,2516
2017-09-22T10:12:11.268Z,2516
2017-09-22T10:12:52.439Z,2512
2017-09-22T10:13:36.393Z,2484
2017-09-22T10:14:18.193Z,2456
2017-09-22T10:14:58.703Z,2556
2017-09-22T10:15:39.453Z,2576
2017-09-22T10:16:20.764Z,2628
2017-09-22T10:17:01.351Z,2680
2017-09-22T10:17:48.351Z,2712
2017-09-22T10:18:32.163Z,2724
2017-09-22T10:19:14.559Z,2700
2017-09-22T10:26:01.928Z,2732
2017-09-22T10:27:08.237Z,2596
2017-09-22T10:28:23.091Z,2388
2017-09-22T10:29:20.280Z,2340
2017-09-22T10:30:34.374Z,2304
2017-09-22T10:31:35.922Z,2300
2017-09-22T10:32:41.628Z,2348
2017-09-22T10:41:37.862Z,2700
2017-09-22T10:42:26.406Z,2668
2017-09-22T10:43:17.015Z,2632
2017-09-22T10:44:07.387Z,2676
2017-09-22T10:45:00.224Z,2632
2017-09-22T10:47:32.005Z,2588
2017-09-22T10:48:27.087Z,2596
2017-09-22T10:49:23.226Z,2604
2017-09-22T10:50:34.103Z,2584
2017-09-22T10:51:12.979Z,2492
2017-09-22T10:51:53.400Z,2496
2017-09-22T10:52:33.848Z,2468
2017-09-22T10:53:21.177Z,2408
2017-09-22T10:54:01.753Z,2440
2017-09-22T10:54:42.130Z,2560
2017-09-22T10:55:22.632Z,2596
2017-09-22T10:56:03.038Z,2680
2017-09-22T10:56:43.727Z,2720
2017-09-22T10:57:24.148Z,2688
2017-09-22T10:58:04.755Z,2608
2017-09-22T10:58:45.174Z,2612
2017-09-22T10:59:25.773Z,2764
2017-09-22T11:00:06.155Z,2712
2017-09-22T11:00:46.612Z,2604
2017-09-22T11:01:27.276Z,2560
2017-09-22T11:02:07.848Z,2596
2017-09-22T11:02:48.385Z,2528
2017-09-22T11:03:28.960Z,2456
2017-09-22T11:04:09.380Z,2460
2017-09-22T11:04:49.917Z,2492
2017-09-22T11:05:30.337Z,2524
2017-09-22T11:06:10.730Z,2532
2017-09-22T11:06:51.293Z,2556
2017-09-22T11:07:31.969Z,2576
2017-09-22T11:08:12.802Z,2588
2017-09-22T11:08:53.305Z,2628
2017-09-22T11:09:33.751Z,2664
2017-09-22T11:10:14.219Z,2700
2017-09-22T11:10:54.658Z,2692
2017-09-22T11:11:35.436Z,2812
2017-09-22T11:12:15.989Z,2832
2017-09-22T11:12:56.437Z,2848
2017-09-22T11:13:37.090Z,2772
2017-09-22T11:14:17.608Z,2672
2017-09-22T11:14:58.107Z,2668
2017-09-22T11:15:38.644Z,2784
2017-09-22T11:16:19.307Z,2580
2017-09-22T11:16:59.881Z,2568
2017-09-22T11:17:40.261Z,2508
2017-09-22T11:18:21.999Z,2552
2017-09-22T11:19:02.920Z,2460
2017-09-22T11:19:43.603Z,2420
2017-09-22T11:27:29.945Z,2320
2017-09-22T11:32:15.515Z,2628
2017-09-22T11:33:17.700Z,2728
2017-09-22T11:34:17.714Z,2684
2017-09-22T11:35:20.226Z,2404
2017-09-22T11:36:22.250Z,2252
2017-09-22T11:42:53.511Z,2344
2017-09-22T11:44:04.542Z,2336
2017-09-22T11:45:04.350Z,2328
2017-09-22T11:45:45.596Z,2096
2017-09-22T11:46:26.064Z,2188
2017-09-22T11:47:06.609Z,2268
2017-09-22T11:47:46.958Z,2300
2017-09-22T11:48:27.604Z,2304
2017-09-22T11:49:08.053Z,2300
2017-09-22T11:49:49.506Z,2312
2017-09-22T11:50:30.266Z,2280
2017-09-22T11:51:11.171Z,2204
2017-09-22T11:51:51.557Z,2248
2017-09-22T11:52:32.338Z,2236
2017-09-22T11:53:12.792Z,2276
2017-09-22T11:53:53.331Z,2288
2017-09-22T11:59:41.964Z,1892
2017-09-22T12:00:40.590Z,1780
2017-09-22T12:01:39.638Z,1724
2017-09-22T12:02:37.362Z,1636
2017-09-22T12:03:54.851Z,1584
2017-09-22T12:05:03.649Z,1568
2017-09-22T12:05:50.091Z,1568
2017-09-22T12:06:30.549Z,1600
2017-09-22T12:07:10.970Z,1636
2017-09-22T12:07:51.385Z,1848
2017-09-22T12:08:31.782Z,1676
2017-09-22T12:09:12.413Z,1904
2017-09-22T12:09:52.843Z,2080
2017-09-22T12:10:33.322Z,2104
2017-09-22T12:11:13.830Z,1820
2017-09-22T12:11:54.472Z,2140
2017-09-22T12:12:35.281Z,2276
2017-09-22T12:13:23.337Z,2344
2017-09-22T12:14:03.833Z,2388
2017-09-22T12:14:44.410Z,2460
2017-09-22T12:15:24.837Z,2524
2017-09-22T12:16:05.290Z,2524
2017-09-22T12:16:45.795Z,2500
2017-09-22T12:17:26.284Z,2500
2017-09-22T12:18:06.844Z,2240
2017-09-22T12:18:47.325Z,2140
2017-09-22T12:19:27.743Z,2432
2017-09-22T12:20:08.211Z,2312
2017-09-22T12:20:48.716Z,2412
2017-09-22T12:21:29.435Z,2444
2017-09-22T12:22:10.032Z,2416
2017-09-22T12:22:50.445Z,2336
2017-09-22T12:23:30.900Z,2492
2017-09-22T12:24:11.292Z,2480
2017-09-22T12:24:51.807Z,2512
2017-09-22T12:25:32.505Z,2404
2017-09-22T12:26:13.940Z,2476
2017-09-22T12:26:54.370Z,2316
2017-09-22T12:27:35.047Z,2324
2017-09-22T12:28:15.408Z,2248
2017-09-22T12:28:56.132Z,2324
2017-09-22T12:29:37.640Z,2228
2017-09-22T12:30:18.251Z,2172
2017-09-22T12:30:58.693Z,2380
2017-09-22T12:31:39.277Z,2396
2017-09-22T12:32:19.807Z,2104
2017-09-22T12:33:00.181Z,2256
2017-09-22T12:33:40.841Z,2404
2017-09-22T12:34:21.343Z,2408
2017-09-22T12:35:02.318Z,2080
2017-09-22T12:37:40.262Z,1976
2017-09-22T12:38:40.521Z,2080
2017-09-22T12:39:48.325Z,2296
2017-09-22T12:40:57.982Z,2292
2017-09-22T12:42:03.729Z,2164
2017-09-22T12:43:06.165Z,2200
2017-09-22T12:44:06.465Z,1860
2017-09-22T12:45:09.595Z,1740
2017-09-22T12:46:09.363Z,1756
2017-09-22T12:47:10.270Z,1700
2017-09-22T13:57:49.995Z,1868
2017-09-22T13:58:54.018Z,1832
2017-09-22T14:00:08.561Z,1908
2017-09-22T14:01:06.503Z,1880
2017-09-22T14:01:46.131Z,1860
2017-09-22T14:02:26.724Z,1864
2017-09-22T14:03:07.111Z,1852
2017-09-22T14:03:47.544Z,1848
2017-09-22T14:04:27.979Z,1864
2017-09-22T14:05:08.685Z,1868
2017-09-22T14:05:49.091Z,1892
2017-09-22T14:06:29.594Z,1840
2017-09-22T14:07:10.184Z,1784
2017-09-22T14:10:00.257Z,1880
2017-09-22T14:10:56.893Z,1824
2017-09-22T14:11:59.310Z,1704
2017-09-22T14:12:54.906Z,1760
2017-09-22T14:13:52.909Z,1728
2017-09-22T14:14:48.099Z,1908
2017-09-22T14:15:47.874Z,1840
2017-09-22T14:16:50.934Z,1736
2017-09-22T14:17:53.043Z,1888
2017-09-22T14:19:03.418Z,2116
2017-09-22T14:20:10.109Z,2068
2017-09-22T14:21:16.392Z,1944
2017-09-22T14:22:22.745Z,2208
